createdAt,value
2023-01-09T00:00:59.210Z,95411.72
2023-01-09T00:03:25.946Z,95411.41
2023-01-09T00:06:11.538Z,95414.25
2023-01-09T00:08:38.371Z,95403.06
2023-01-09T00:11:05.850Z,95415.63
2023-01-09T00:13:32.632Z,95415.78
2023-01-09T00:15:59.868Z,95426.28
2023-01-09T00:18:27.218Z,95410.56
2023-01-09T00:20:54.109Z,95408.41
2023-01-09T00:23:20.853Z,95403.91
2023-01-09T00:25:47.522Z,95404.75
2023-01-09T00:28:14.372Z,95402.75
2023-01-09T00:30:41.084Z,95410.72
2023-01-09T00:33:07.861Z,95410.03
2023-01-09T00:35:34.662Z,95406.34
2023-01-09T00:38:03.593Z,95404.25
2023-01-09T00:40:30.348Z,95399.75
2023-01-09T00:42:57.916Z,95409.34
2023-01-09T00:45:29.150Z,95406.16
2023-01-09T00:48:07.165Z,95405.59
2023-01-09T00:50:35.545Z,95397.06
2023-01-09T00:53:12.566Z,95398.34
2023-01-09T00:55:40.028Z,95410.25
2023-01-09T00:58:07.167Z,95396.16
2023-01-09T01:00:33.993Z,95404.19
2023-01-09T01:03:01.111Z,95403.47
2023-01-09T01:05:46.511Z,95405.97
2023-01-09T01:08:17.555Z,95419.91
2023-01-09T01:10:45.641Z,95418.56
2023-01-09T01:13:12.942Z,95416.44
2023-01-09T01:15:40.924Z,95403.25
2023-01-09T01:18:08.150Z,95399.69
2023-01-09T01:20:34.937Z,95401.19
2023-01-09T01:23:01.705Z,95400.47
2023-01-09T01:25:28.480Z,95391.81
2023-01-09T01:27:55.320Z,95382.38
2023-01-09T01:30:21.973Z,95386.69
2023-01-09T01:32:48.828Z,95385.34
2023-01-09T01:35:15.571Z,95367.63
2023-01-09T01:37:42.592Z,95386.03
2023-01-09T01:40:11.068Z,95381.25
2023-01-09T01:42:37.769Z,95381.06
2023-01-09T01:45:09.521Z,95368.34
2023-01-09T01:47:39.326Z,95369.66
2023-01-09T01:50:15.558Z,95369.00
2023-01-09T01:52:47.786Z,95361.69
2023-01-09T01:55:17.215Z,95358.38
2023-01-09T01:57:47.924Z,95345.97
2023-01-09T02:00:15.477Z,95341.47
2023-01-09T02:02:43.711Z,95349.75
2023-01-09T02:05:11.599Z,95356.22
2023-01-09T02:07:38.378Z,95336.44
2023-01-09T02:10:05.950Z,95332.72
2023-01-09T02:12:33.709Z,95336.81
2023-01-09T02:15:06.129Z,95330.56
2023-01-09T02:18:03.135Z,95331.16
2023-01-09T02:20:51.266Z,95335.59
2023-01-09T02:23:55.451Z,95335.53
2023-01-09T02:26:34.889Z,95334.06
2023-01-09T02:29:23.013Z,95333.56
2023-01-09T02:31:53.485Z,95331.06
2023-01-09T02:34:57.540Z,95325.31
2023-01-09T02:37:59.814Z,95322.72
2023-01-09T02:40:39.406Z,95319.41
2023-01-09T02:43:08.276Z,95318.34
2023-01-09T02:45:35.126Z,95316.03
2023-01-09T02:48:01.875Z,95311.53
2023-01-09T02:51:02.713Z,95307.56
2023-01-09T02:54:01.058Z,95322.63
2023-01-09T02:56:55.908Z,95312.84
2023-01-09T03:00:00.910Z,95320.09
2023-01-09T03:02:44.384Z,95315.34
2023-01-09T03:05:29.843Z,95328.31
2023-01-09T03:08:00.101Z,95320.88
2023-01-09T03:10:41.923Z,95310.31
2023-01-09T03:13:14.303Z,95319.78
2023-01-09T03:15:44.424Z,95316.69
2023-01-09T03:18:13.920Z,95317.13
2023-01-09T03:20:41.241Z,95320.78
2023-01-09T03:23:08.858Z,95321.06
2023-01-09T03:25:35.730Z,95317.59
2023-01-09T03:28:05.941Z,95325.13
2023-01-09T03:30:34.757Z,95326.00
2023-01-09T03:33:01.787Z,95314.88
2023-01-09T03:35:28.952Z,95324.56
2023-01-09T03:37:55.583Z,95310.38
2023-01-09T03:40:22.581Z,95325.41
2023-01-09T03:42:49.439Z,95321.28
2023-01-09T03:45:16.424Z,95327.72
2023-01-09T03:47:43.235Z,95300.47
2023-01-09T03:50:10.838Z,95317.88
2023-01-09T03:52:37.592Z,95327.56
2023-01-09T03:55:04.750Z,95324.97
2023-01-09T03:57:31.524Z,95322.69
2023-01-09T03:59:58.302Z,95319.41
2023-01-09T04:02:25.176Z,95320.50
2023-01-09T04:04:51.888Z,95308.06
2023-01-09T04:07:18.660Z,95307.94
2023-01-09T04:09:45.352Z,95319.00
2023-01-09T04:12:12.014Z,95322.22
2023-01-09T04:14:38.721Z,95316.97
2023-01-09T04:17:05.551Z,95312.94
2023-01-09T04:19:32.192Z,95318.31
2023-01-09T04:21:59.005Z,95312.41
2023-01-09T04:24:25.727Z,95315.78
2023-01-09T04:26:52.386Z,95307.31
2023-01-09T04:29:19.158Z,95306.22
2023-01-09T04:31:45.959Z,95307.03
2023-01-09T04:34:12.828Z,95319.38
2023-01-09T04:36:40.178Z,95318.28
2023-01-09T04:39:07.075Z,95309.91
2023-01-09T04:41:48.925Z,95316.00
2023-01-09T04:44:20.976Z,95306.09
2023-01-09T04:46:47.878Z,95305.69
2023-01-09T04:49:15.256Z,95308.59
2023-01-09T04:51:43.123Z,95309.78
2023-01-09T04:54:09.996Z,95309.69
2023-01-09T04:56:37.394Z,95300.84
2023-01-09T04:59:05.892Z,95292.50
2023-01-09T05:01:33.950Z,95296.94
2023-01-09T05:04:01.173Z,95307.19
2023-01-09T05:06:28.285Z,95295.44
2023-01-09T05:08:56.624Z,95305.41
2023-01-09T05:11:25.493Z,95283.88
2023-01-09T05:13:53.296Z,95295.41
2023-01-09T05:16:20.681Z,95293.91
2023-01-09T05:18:47.719Z,95299.28
2023-01-09T05:21:14.757Z,95306.72
2023-01-09T05:23:41.499Z,95305.84
2023-01-09T05:26:08.249Z,95311.91
2023-01-09T05:28:34.878Z,95320.72
2023-01-09T05:31:01.591Z,95311.38
2023-01-09T05:33:28.425Z,95322.78
2023-01-09T05:35:55.166Z,95315.03
2023-01-09T05:38:22.164Z,95308.13
2023-01-09T05:40:49.011Z,95286.31
2023-01-09T05:43:15.698Z,95291.47
2023-01-09T05:45:43.279Z,95308.88
2023-01-09T05:48:11.121Z,95301.25
2023-01-09T05:50:37.904Z,95312.25
2023-01-09T05:53:06.653Z,95291.66
2023-01-09T05:55:34.079Z,95279.97
2023-01-09T05:58:01.197Z,95288.81
2023-01-09T06:00:28.046Z,95289.91
2023-01-09T06:02:54.963Z,95294.25
2023-01-09T06:05:21.850Z,95288.91
2023-01-09T06:07:48.686Z,95288.38
2023-01-09T06:10:15.848Z,95291.78
2023-01-09T06:12:49.281Z,95279.09
2023-01-09T06:15:16.721Z,95286.94
2023-01-09T06:17:43.765Z,95286.66
2023-01-09T06:20:11.927Z,95284.13
2023-01-09T06:22:38.834Z,95284.59
2023-01-09T06:25:06.297Z,95290.13
2023-01-09T06:27:33.050Z,95286.56
2023-01-09T06:29:59.870Z,95283.59
2023-01-09T06:32:26.683Z,95269.16
2023-01-09T06:34:53.481Z,95283.53
2023-01-09T06:37:20.236Z,95282.06
2023-01-09T06:39:47.288Z,95279.19
2023-01-09T06:42:13.984Z,95288.53
2023-01-09T06:44:40.762Z,95275.72
2023-01-09T06:47:07.785Z,95278.00
2023-01-09T06:49:34.642Z,95279.31
2023-01-09T06:52:05.684Z,95279.91
2023-01-09T06:54:32.460Z,95281.19
2023-01-09T06:56:59.283Z,95282.56
2023-01-09T06:59:26.302Z,95277.00
2023-01-09T07:01:53.481Z,95274.59
2023-01-09T07:04:22.129Z,95274.25
2023-01-09T07:06:49.945Z,95275.19
2023-01-09T07:09:16.647Z,95272.63
2023-01-09T07:11:43.527Z,95275.84
2023-01-09T07:14:10.319Z,95275.47
2023-01-09T07:16:37.432Z,95263.97
2023-01-09T07:19:04.213Z,95269.19
2023-01-09T07:21:32.886Z,95272.63
2023-01-09T07:23:59.882Z,95275.34
2023-01-09T07:26:26.662Z,95285.00
2023-01-09T07:28:54.631Z,95281.44
2023-01-09T07:31:21.481Z,95279.72
2023-01-09T07:33:48.302Z,95279.69
2023-01-09T07:36:15.071Z,95274.47
2023-01-09T07:38:43.007Z,95275.25
2023-01-09T07:41:09.914Z,95272.16
2023-01-09T07:43:38.143Z,95271.53
2023-01-09T07:46:05.543Z,95272.63
2023-01-09T07:48:32.671Z,95277.50
2023-01-09T07:50:59.820Z,95282.44
2023-01-09T07:53:26.655Z,95286.66
2023-01-09T07:55:53.580Z,95288.94
2023-01-09T07:58:20.296Z,95287.25
2023-01-09T08:00:47.105Z,95281.41
2023-01-09T08:03:13.844Z,95289.59
2023-01-09T08:05:40.680Z,95291.38
2023-01-09T08:08:07.583Z,95290.69
2023-01-09T08:10:34.554Z,95284.19
2023-01-09T08:13:01.239Z,95289.41
2023-01-09T08:15:28.028Z,95290.72
2023-01-09T08:17:54.891Z,95286.81
2023-01-09T08:20:21.705Z,95279.78
2023-01-09T08:22:53.559Z,95273.16
2023-01-09T08:25:21.055Z,95289.38
2023-01-09T08:27:48.308Z,95277.53
2023-01-09T08:30:15.772Z,95284.06
2023-01-09T08:32:43.047Z,95275.34
2023-01-09T08:35:10.877Z,95279.94
2023-01-09T08:37:38.606Z,95277.53
2023-01-09T08:40:05.685Z,95275.38
2023-01-09T08:42:51.037Z,95269.72
2023-01-09T08:45:36.398Z,95272.66
2023-01-09T08:48:03.471Z,95269.31
2023-01-09T08:50:30.140Z,95258.59
2023-01-09T08:52:58.104Z,95267.28
2023-01-09T08:55:25.080Z,95262.97
2023-01-09T08:57:52.976Z,95256.72
2023-01-09T09:00:21.847Z,95252.50
2023-01-09T09:02:57.250Z,95246.81
2023-01-09T09:05:25.778Z,95237.63
2023-01-09T09:07:56.337Z,95234.78
2023-01-09T09:10:26.083Z,95234.25
2023-01-09T09:12:55.695Z,95231.63
2023-01-09T09:15:26.604Z,95225.31
2023-01-09T09:18:02.118Z,95219.97
2023-01-09T09:20:34.300Z,95198.22
2023-01-09T09:23:01.143Z,95206.94
2023-01-09T09:25:28.136Z,95211.69
2023-01-09T09:27:57.607Z,95203.50
2023-01-09T09:30:24.817Z,95195.09
2023-01-09T09:32:51.512Z,95194.34
2023-01-09T09:35:19.185Z,95190.16
2023-01-09T09:37:55.194Z,95179.63
2023-01-09T09:40:35.217Z,95176.94
2023-01-09T09:43:43.405Z,95159.31
2023-01-09T09:47:06.702Z,95157.38
2023-01-09T09:50:27.940Z,95147.13
2023-01-09T09:53:01.297Z,95131.81
2023-01-09T09:55:33.076Z,95122.84
2023-01-09T09:58:06.574Z,95126.28
2023-01-09T10:00:33.653Z,95037.53
2023-01-09T10:03:06.130Z,95107.16
2023-01-09T10:05:40.730Z,95086.84
2023-01-09T10:08:29.625Z,95076.19
2023-01-09T10:10:57.085Z,95060.97
2023-01-09T10:13:43.642Z,95045.34
2023-01-09T10:16:16.515Z,95045.53
2023-01-09T10:18:55.198Z,95050.53
2023-01-09T10:21:45.556Z,95049.44
2023-01-09T10:24:33.850Z,95040.72
2023-01-09T10:27:09.947Z,95038.06
2023-01-09T10:29:50.876Z,95028.81
2023-01-09T10:32:33.398Z,95019.91
2023-01-09T10:35:00.229Z,95024.59
2023-01-09T10:37:37.139Z,95021.72
2023-01-09T10:40:19.434Z,95023.47
2023-01-09T10:42:47.497Z,95023.16
2023-01-09T10:45:24.184Z,95018.66
2023-01-09T10:47:53.812Z,95004.94
2023-01-09T10:50:28.047Z,95002.09
2023-01-09T10:52:56.491Z,94998.66
2023-01-09T10:55:40.890Z,95000.50
2023-01-09T10:58:13.572Z,94996.44
2023-01-09T11:00:41.372Z,94986.78
2023-01-09T11:03:13.922Z,94977.81
2023-01-09T11:05:41.578Z,94958.38
2023-01-09T11:08:15.825Z,94956.84
2023-01-09T11:10:51.641Z,94968.16
2023-01-09T11:13:29.450Z,94947.97
2023-01-09T11:16:06.862Z,94954.53
2023-01-09T11:18:47.918Z,94966.09
2023-01-09T11:21:32.886Z,94954.16
2023-01-09T11:24:21.510Z,94963.56
2023-01-09T11:26:50.738Z,94953.84
2023-01-09T11:29:24.563Z,94951.25
2023-01-09T11:31:54.546Z,94950.69
2023-01-09T11:34:24.850Z,94945.72
2023-01-09T11:36:53.980Z,94948.41
2023-01-09T11:39:25.293Z,94944.94
2023-01-09T11:42:00.118Z,94941.28
2023-01-09T11:44:28.987Z,94944.94
2023-01-09T11:46:55.801Z,94931.53
2023-01-09T11:49:25.953Z,94925.84
2023-01-09T11:52:19.617Z,94924.59
2023-01-09T11:55:03.000Z,94936.25
2023-01-09T11:57:30.613Z,94934.38
2023-01-09T12:00:01.851Z,94932.63
2023-01-09T12:02:56.186Z,94933.19
2023-01-09T12:05:25.735Z,94924.03
2023-01-09T12:07:55.376Z,94908.91
2023-01-09T12:10:47.128Z,94925.38
2023-01-09T12:13:42.634Z,94917.75
2023-01-09T12:16:22.558Z,94906.06
2023-01-09T12:19:26.876Z,94887.09
2023-01-09T12:22:01.309Z,94884.97
2023-01-09T12:24:33.967Z,94887.53
2023-01-09T12:27:16.604Z,94877.72
2023-01-09T12:29:50.095Z,94879.47
2023-01-09T12:32:48.080Z,94863.78
2023-01-09T12:35:36.538Z,94862.50
2023-01-09T12:38:15.228Z,94858.63
2023-01-09T12:40:58.879Z,94860.59
2023-01-09T12:43:44.707Z,94858.81
2023-01-09T12:46:23.302Z,94867.94
2023-01-09T12:49:14.890Z,94862.38
2023-01-09T12:51:48.348Z,94849.22
2023-01-09T12:54:42.995Z,94847.56
2023-01-09T12:57:20.988Z,94832.47
2023-01-09T13:00:25.942Z,94843.00
2023-01-09T13:03:31.612Z,94839.66
2023-01-09T13:05:58.736Z,94838.25
2023-01-09T13:08:55.085Z,94847.13
2023-01-09T13:11:31.911Z,94844.25
2023-01-09T13:14:04.597Z,94844.44
2023-01-09T13:16:36.274Z,94837.22
2023-01-09T13:19:22.813Z,94844.81
2023-01-09T13:21:50.314Z,94859.16
2023-01-09T13:24:23.832Z,94843.44
2023-01-09T13:26:56.523Z,94850.81
2023-01-09T13:29:30.580Z,94845.66
2023-01-09T13:32:12.521Z,94829.00
2023-01-09T13:34:40.933Z,94822.91
2023-01-09T13:37:25.060Z,94821.88
2023-01-09T13:40:01.006Z,94823.53
2023-01-09T13:42:46.480Z,94826.66
2023-01-09T13:45:28.807Z,94831.06
2023-01-09T13:48:19.142Z,94826.13
2023-01-09T13:50:47.574Z,94820.03
2023-01-09T13:53:20.306Z,94812.88
2023-01-09T13:56:14.547Z,94823.38
2023-01-09T13:58:59.105Z,94815.41
2023-01-09T14:01:35.623Z,94815.22
2023-01-09T14:04:21.398Z,94835.53
2023-01-09T14:07:22.223Z,94850.56
2023-01-09T14:09:54.410Z,94834.22
2023-01-09T14:12:22.486Z,94835.31
2023-01-09T14:14:51.523Z,94840.53
2023-01-09T14:17:32.330Z,94822.13
2023-01-09T14:20:03.228Z,94824.81
2023-01-09T14:22:45.630Z,94820.09
2023-01-09T14:25:26.534Z,94814.34
2023-01-09T14:27:59.649Z,94815.88
2023-01-09T14:30:26.433Z,94819.59
2023-01-09T14:33:28.046Z,94798.53
2023-01-09T14:36:12.317Z,94800.66
2023-01-09T14:39:00.118Z,94795.94
2023-01-09T14:41:48.501Z,94789.66
2023-01-09T14:44:26.235Z,94775.75
2023-01-09T14:46:54.392Z,94777.91
2023-01-09T14:49:44.570Z,94792.28
2023-01-09T14:52:51.820Z,94800.44
2023-01-09T14:55:40.050Z,94786.78
2023-01-09T14:58:21.302Z,94789.16
2023-01-09T15:00:54.431Z,94785.50
2023-01-09T15:03:23.285Z,94780.28
2023-01-09T15:05:52.720Z,94764.50
2023-01-09T15:08:23.758Z,94757.16
2023-01-09T15:10:53.559Z,94758.75
2023-01-09T15:13:36.650Z,94777.34
2023-01-09T15:16:06.576Z,94775.53
2023-01-09T15:18:42.079Z,94772.38
2023-01-09T15:21:19.282Z,94751.91
2023-01-09T15:23:46.158Z,94754.53
2023-01-09T15:26:30.411Z,94748.22
2023-01-09T15:29:15.496Z,94753.47
2023-01-09T15:31:45.837Z,94760.72
2023-01-09T15:34:19.152Z,94759.13
2023-01-09T15:36:49.151Z,94757.66
2023-01-09T15:39:22.586Z,94765.00
2023-01-09T15:42:08.084Z,94763.19
2023-01-09T15:44:39.049Z,94763.47
2023-01-09T15:47:11.418Z,94744.34
2023-01-09T15:49:38.370Z,94747.19
2023-01-09T15:52:07.137Z,94747.47
2023-01-09T15:54:35.280Z,94749.56
2023-01-09T15:57:26.598Z,94754.00
2023-01-09T16:00:17.217Z,94754.56
2023-01-09T16:03:04.150Z,94763.97
2023-01-09T16:05:33.049Z,94765.00
2023-01-09T16:08:01.017Z,94752.47
2023-01-09T16:10:34.533Z,94727.53
2023-01-09T16:13:02.495Z,94736.19
2023-01-09T16:15:34.712Z,94750.28
2023-01-09T16:18:22.411Z,94752.78
2023-01-09T16:20:49.602Z,94750.75
2023-01-09T16:23:33.186Z,94723.16
2023-01-09T16:26:12.603Z,94742.28
2023-01-09T16:28:42.998Z,94734.81
2023-01-09T16:31:29.386Z,94734.06
2023-01-09T16:34:07.000Z,94723.59
2023-01-09T16:36:37.423Z,94737.44
2023-01-09T16:39:04.289Z,94721.22
2023-01-09T16:41:50.046Z,94726.47
2023-01-09T16:44:19.203Z,94720.91
2023-01-09T16:46:46.290Z,94720.38
2023-01-09T16:49:15.918Z,94696.00
2023-01-09T16:51:42.706Z,94698.38
2023-01-09T16:54:09.587Z,94699.91
2023-01-09T16:56:38.602Z,94720.34
2023-01-09T16:59:05.539Z,94718.69
2023-01-09T17:01:32.416Z,94719.81
2023-01-09T17:03:59.193Z,94718.47
2023-01-09T17:06:31.209Z,94707.81
2023-01-09T17:08:59.067Z,94734.31
2023-01-09T17:11:32.024Z,94725.53
2023-01-09T17:13:59.578Z,94738.13
2023-01-09T17:16:26.997Z,94720.13
2023-01-09T17:18:53.876Z,94721.50
2023-01-09T17:21:26.958Z,94725.56
2023-01-09T17:24:14.206Z,94715.09
2023-01-09T17:27:03.822Z,94713.84
2023-01-09T17:29:30.810Z,94700.47
2023-01-09T17:31:58.151Z,94720.59
2023-01-09T17:34:25.072Z,94713.25
2023-01-09T17:36:52.873Z,94720.00
2023-01-09T17:39:19.771Z,94702.19
2023-01-09T17:41:47.689Z,94713.34
2023-01-09T17:44:14.648Z,94690.44
2023-01-09T17:46:43.832Z,94661.38
2023-01-09T17:49:19.095Z,94676.53
2023-01-09T17:51:46.021Z,94670.75
2023-01-09T17:54:13.107Z,94664.00
2023-01-09T17:56:44.744Z,94676.66
2023-01-09T17:59:13.355Z,94683.44
2023-01-09T18:01:41.633Z,94681.63
2023-01-09T18:04:08.889Z,94687.72
2023-01-09T18:06:38.576Z,94684.97
2023-01-09T18:09:06.434Z,94665.19
2023-01-09T18:11:33.405Z,94666.63
2023-01-09T18:14:00.189Z,94656.69
2023-01-09T18:16:28.135Z,94661.09
2023-01-09T18:18:57.916Z,94650.94
2023-01-09T18:21:26.836Z,94645.97
2023-01-09T18:23:53.589Z,94644.47
2023-01-09T18:26:21.539Z,94655.06
2023-01-09T18:28:51.138Z,94645.25
2023-01-09T18:31:22.679Z,94683.53
2023-01-09T18:33:54.639Z,94668.78
2023-01-09T18:36:24.387Z,94668.78
2023-01-09T18:38:53.479Z,94660.16
2023-01-09T18:41:21.710Z,94671.38
2023-01-09T18:43:53.263Z,94655.72
2023-01-09T18:46:24.196Z,94673.13
2023-01-09T18:48:59.408Z,94655.59
2023-01-09T18:51:28.269Z,94684.31
2023-01-09T18:53:55.778Z,94647.97
2023-01-09T18:56:23.342Z,94683.81
2023-01-09T18:58:53.716Z,94667.88
2023-01-09T19:01:20.649Z,94679.38
2023-01-09T19:03:48.098Z,94653.75
2023-01-09T19:06:14.960Z,94667.72
2023-01-09T19:08:42.041Z,94664.88
2023-01-09T19:11:08.937Z,94674.84
2023-01-09T19:13:37.248Z,94647.41
2023-01-09T19:16:06.584Z,94645.47
2023-01-09T19:18:35.369Z,94596.97
2023-01-09T19:21:02.355Z,94669.81
2023-01-09T19:23:29.472Z,94641.94
2023-01-09T19:25:57.719Z,94657.13
2023-01-09T19:28:24.746Z,94646.97
2023-01-09T19:30:56.898Z,94655.00
2023-01-09T19:33:25.231Z,94637.13
2023-01-09T19:35:53.095Z,94649.88
2023-01-09T19:38:22.590Z,94645.06
2023-01-09T19:40:49.483Z,94647.69
2023-01-09T19:43:26.174Z,94640.47
2023-01-09T19:45:56.477Z,94635.53
2023-01-09T19:48:24.248Z,94627.25
2023-01-09T19:50:50.959Z,94632.44
2023-01-09T19:53:18.439Z,94633.84
2023-01-09T19:55:45.204Z,94641.66
2023-01-09T19:58:11.989Z,94642.16
2023-01-09T20:00:39.342Z,94603.59
2023-01-09T20:03:06.183Z,94628.06
2023-01-09T20:05:33.288Z,94604.94
2023-01-09T20:08:00.126Z,94614.31
2023-01-09T20:10:26.825Z,94615.75
2023-01-09T20:12:53.684Z,94620.03
2023-01-09T20:15:20.492Z,94587.94
2023-01-09T20:17:47.348Z,94591.41
2023-01-09T20:20:15.939Z,94577.63
2023-01-09T20:22:42.623Z,94562.00
2023-01-09T20:25:10.449Z,94570.38
2023-01-09T20:27:37.319Z,94560.38
2023-01-09T20:30:04.707Z,94576.84
2023-01-09T20:32:32.443Z,94569.50
2023-01-09T20:34:59.387Z,94540.00
2023-01-09T20:37:26.237Z,94509.16
2023-01-09T20:39:53.338Z,94545.19
2023-01-09T20:42:20.287Z,94567.59
2023-01-09T20:44:47.309Z,94555.63
2023-01-09T20:47:14.182Z,94546.28
2023-01-09T20:49:40.847Z,94564.66
2023-01-09T20:52:07.689Z,94559.44
2023-01-09T20:54:35.668Z,94545.25
2023-01-09T20:57:02.403Z,94553.81
2023-01-09T20:59:29.355Z,94540.84
2023-01-09T21:01:56.020Z,94537.97
2023-01-09T21:04:22.993Z,94552.59
2023-01-09T21:06:50.614Z,94541.66
2023-01-09T21:09:17.738Z,94527.75
2023-01-09T21:11:44.520Z,94520.19
2023-01-09T21:14:11.291Z,94519.34
2023-01-09T21:16:38.201Z,94515.91
2023-01-09T21:19:04.996Z,94505.78
2023-01-09T21:21:31.854Z,94490.84
2023-01-09T21:24:00.588Z,94501.19
2023-01-09T21:26:30.441Z,94491.00
2023-01-09T21:28:59.793Z,94502.31
2023-01-09T21:31:34.184Z,94502.53
2023-01-09T21:34:07.515Z,94527.31
2023-01-09T21:36:35.435Z,94503.38
2023-01-09T21:39:07.582Z,94493.88
2023-01-09T21:41:53.788Z,94460.75
2023-01-09T21:44:39.086Z,94461.78
2023-01-09T21:47:05.916Z,94509.78
2023-01-09T21:49:35.045Z,94477.72
2023-01-09T21:52:06.081Z,94487.16
2023-01-09T21:54:33.794Z,94481.13
2023-01-09T21:57:01.568Z,94483.47
2023-01-09T21:59:29.141Z,94476.69
2023-01-09T22:01:56.242Z,94487.25
2023-01-09T22:04:25.458Z,94483.97
2023-01-09T22:06:52.269Z,94468.38
2023-01-09T22:09:19.094Z,94450.56
2023-01-09T22:11:45.881Z,94441.34
2023-01-09T22:14:14.783Z,94432.41
2023-01-09T22:16:43.592Z,94468.91
2023-01-09T22:19:12.374Z,94460.50
2023-01-09T22:21:39.350Z,94457.63
2023-01-09T22:24:06.579Z,94472.53
2023-01-09T22:26:34.104Z,94473.50
2023-01-09T22:29:01.043Z,94458.97
2023-01-09T22:31:32.877Z,94446.38
2023-01-09T22:34:02.316Z,94472.84
2023-01-09T22:36:31.045Z,94468.28
2023-01-09T22:39:00.194Z,94435.38
2023-01-09T22:41:27.866Z,94458.94
2023-01-09T22:43:54.632Z,94445.88
2023-01-09T22:46:21.621Z,94465.47
2023-01-09T22:48:48.437Z,94454.19
2023-01-09T22:51:18.548Z,94433.72
2023-01-09T22:53:46.063Z,94468.25
2023-01-09T22:56:15.296Z,94432.72
2023-01-09T22:58:42.257Z,94455.03
2023-01-09T23:01:13.144Z,94434.88
2023-01-09T23:03:40.322Z,94459.53
2023-01-09T23:06:15.293Z,94416.16
2023-01-09T23:08:43.176Z,94440.44
2023-01-09T23:11:40.104Z,94452.34
2023-01-09T23:14:07.051Z,94407.56
2023-01-09T23:16:33.824Z,94435.13
2023-01-09T23:19:00.921Z,94413.44
2023-01-09T23:21:27.747Z,94403.41
2023-01-09T23:23:54.470Z,94434.69
2023-01-09T23:26:21.270Z,94388.25
2023-01-09T23:28:47.957Z,94365.22
2023-01-09T23:31:15.643Z,94380.94
2023-01-09T23:33:42.509Z,94419.63
2023-01-09T23:36:09.647Z,94403.94
2023-01-09T23:38:36.372Z,94413.44
2023-01-09T23:41:03.106Z,94407.81
2023-01-09T23:43:29.979Z,94404.00
2023-01-09T23:45:56.743Z,94396.09
2023-01-09T23:48:23.604Z,94379.38
2023-01-09T23:50:52.305Z,94364.78
2023-01-09T23:53:21.446Z,94377.31
2023-01-09T23:55:48.882Z,94377.75
2023-01-09T23:58:16.770Z,94344.03
